Alts de Manati, Puerto Rico
Current Conditions -  °F | °C
As of 8:56 AM on Thursday 23 Oct 2014 (Local Time) from TJSJ Reporting Station
Scattered Clouds Scattered Clouds  
Wind Chill: 85°   Ceiling: Unl
Heat Index: 92°   Visibility: 10mi
Dew Point: 74°   Wind: 6mph
Humidity: 69%   Direction: NA
Pressure: 29.95"   Gusts: NA
Location:  18.4259°N, 66.4717°W
Report Text: TJSJ 231256Z VRB05KT 10SM FEW030 SCT070 29/23 A2995 RMK AO2 SLP140 T02940233
Loading
Personal Weather Stations






























Interactive Weather Map New forecast layout! Learn more

10-Day Weather Forecast

Advertisements
Track Severe Weather on mobile